Fairbanks, AK

10:20 AM AKDT on October 01, 2014 (GMT -0800)
AKDOT 14th Avenue @ Eielson Street | Change Station
CLOSE
Current Station
Personal Weather Station
Location: Fairbanks, AK
Elevation: 482 ft
Nearby Weather Stations

Elev 482 ft 64.84 °N, 147.71 °W | Updated 57 minutes ago

Overcast
Overcast
32 °F
Feels Like 32 °F
N
2
Wind Variable Wind from NW
Gusts 5.0 mph

Today
High -- | Low -- °F
--% Chance of Precip.
Yesterday
High -- | Low -- °F
Precip. -- in
8:01 AM 7:18 PM
Waxing Crescent, 50% visible
Pressure 30.30 in
Visibility 25.0 miles
Clouds Mostly Cloudy 2000 ft
Overcast 5000 ft
Windchill 32 °F
Dew Point 28 °F
Humidity 84%
Rainfall -999.00 in
Snow Depth Not available.
UV 0 out of 12
Pollen Not available.
Air Quality Not available.
Flu Activity Not available.
METAR PAFB 011755Z 09004KT 25SM BKN020 OVC050 01/M02 A3027 RMK SLP258 60000 56005

More Conditions Fewer Conditions

Pressure 30.30 in
Visibility 25.0 miles
Clouds Mostly Cloudy 2000 ft
Overcast 5000 ft
Windchill 32 °F
Dew Point 28 °F
Humidity 84%
Rainfall -999.00 in
Snow Depth Not available.
UV 0 out of 12
Pollen Not available.
Air Quality Not available.
Flu Activity Not available.
METAR PAFB 011755Z 09004KT 25SM BKN020 OVC050 01/M02 A3027 RMK SLP258 60000 56005

More Conditions Fewer Conditions

10-Day Weather Forecast

Almanac

Astronomy

Oct. 01, 2014 Rise Set
Actual Time 8:01 AM AKDT 7:18 PM AKDT
Civil Twilight 7:12 AM AKDT 8:06 PM AKDT
Nautical Twilight 6:14 AM AKDT 9:04 PM AKDT
Astronomical Twilight 5:11 AM AKDT 10:06 PM AKDT
Moon 4:50 PM AKDT 11:24 PM AKDT
Length of Visible Light 12h 54m
Length of Day
11h 17m
Tomorrow will be 6m 39s shorter.
Waxing Crescent, 50% of the Moon is Illuminated
Today
Waxing Crescent
Oct 1
First Quarter
Oct 8
Full
Oct 15
Last Quarter
Oct 23
New

Today's Extremes

State Highs State Lows

Community

WunderPhotos

Upload Photos

1,758,008 photos uploaded!

WunderBlogs® & News

By Dr. Jeff Masters
Director of Meteorology, Weather Underground
By Kari Strenfel
Meteorologist, Weather Underground
By Christopher C. Burt
Weather Historian, Weather Underground
October 1, 2014
October 1, 2014
October 1, 2014

Nearby

Snow Depth

Station Depth Elevation
Granite Creek 0 in 1240 ft
Upper Tsaina River 0 in 1750 ft
Gobblers Knob 4 in 2030 ft
Eagle Summit 77 in 3650 ft
Upper Chena 7 in 2850 ft

Earthquake Activity

City Distance Mag. Time & Date
No recent earthquake activity has been reported nearby.
Minimum magnitude displayed is 2.5.

Coastal Water Temperatures

Place Temperature
No Stations Reporting

Nearby Weather Stations